Terminal Aerodrome Forecast
Issued by NWS

Home | Current Version | Previous Version | Text Only | Print | Product List | Glossary On
Versions: 1 2 3 4 5 6 7 8 9 10 11 12 13
000
FTUS45 KRIW 242300 RRA
TAFWRL
TAF
KWRL 242341Z 2500/2524 34011KT P6SM BKN100
     FM250100 VRB06KT P6SM SCT120 BKN200
     FM251200 VRB06KT P6SM BKN080
     FM252000 21015KT P6SM FEW080 BKN100=

USA.gov is the U.S. government's official web portal to all federal, state and local government web resources and services.